createdAt,value
2019-02-21T00:01:05.138Z,101220.50
2019-02-21T00:03:55.207Z,101221.52
2019-02-21T00:06:45.330Z,101224.71
2019-02-21T00:09:35.341Z,101229.95
2019-02-21T00:12:25.526Z,101225.08
2019-02-21T00:15:16.144Z,101214.09
2019-02-21T00:18:06.555Z,101213.53
2019-02-21T00:20:56.915Z,101198.03
2019-02-21T00:23:47.787Z,101216.02
2019-02-21T00:26:38.125Z,101213.53
2019-02-21T00:29:28.608Z,101214.22
2019-02-21T00:32:18.881Z,101218.88
2019-02-21T00:35:09.666Z,101219.43
2019-02-21T00:38:00.061Z,101219.23
2019-02-21T00:40:50.343Z,101227.44
2019-02-21T00:43:40.566Z,101218.53
2019-02-21T00:46:30.619Z,101224.06
2019-02-21T00:49:20.863Z,101223.66
2019-02-21T00:52:11.363Z,101225.55
2019-02-21T00:55:01.891Z,101230.25
2019-02-21T00:57:52.402Z,101233.96
2019-02-21T01:00:46.444Z,101228.77
2019-02-21T01:03:34.354Z,101225.91
2019-02-21T01:06:24.640Z,101225.04
2019-02-21T01:09:14.827Z,101220.02
2019-02-21T01:12:05.178Z,101226.16
2019-02-21T01:14:55.506Z,101227.02
2019-02-21T01:17:45.765Z,101225.69
2019-02-21T01:20:36.102Z,101227.39
2019-02-21T01:23:26.545Z,101226.05
2019-02-21T01:26:17.184Z,101224.41
2019-02-21T01:29:07.480Z,101221.91
2019-02-21T01:31:57.632Z,101232.69
2019-02-21T01:34:47.866Z,101234.93
2019-02-21T01:37:37.835Z,101229.19
2019-02-21T01:40:28.066Z,101230.75
2019-02-21T01:43:18.386Z,101235.68
2019-02-21T01:46:08.614Z,101238.88
2019-02-21T01:48:59.578Z,101244.41
2019-02-21T01:51:49.877Z,101234.93
2019-02-21T01:54:40.388Z,101243.27
2019-02-21T01:57:30.741Z,101245.38
2019-02-21T02:00:20.795Z,101248.00
2019-02-21T02:03:11.055Z,101248.63
2019-02-21T02:06:01.343Z,101254.48
2019-02-21T02:08:52.586Z,101252.37
2019-02-21T02:11:42.759Z,101253.65
2019-02-21T02:14:32.845Z,101259.02
2019-02-21T02:17:23.194Z,101269.86
2019-02-21T02:20:13.159Z,101268.67
2019-02-21T02:23:03.757Z,101267.57
2019-02-21T02:25:54.117Z,101272.77
2019-02-21T02:28:44.404Z,101281.84
2019-02-21T02:31:34.649Z,101280.85
2019-02-21T02:34:24.711Z,101276.06
2019-02-21T02:37:15.044Z,101283.41
2019-02-21T02:40:05.412Z,101282.44
2019-02-21T02:42:55.529Z,101281.52
2019-02-21T02:45:48.355Z,101278.16
2019-02-21T02:48:38.444Z,101283.09
2019-02-21T02:51:28.877Z,101280.50
2019-02-21T02:54:19.991Z,101288.09
2019-02-21T02:57:10.721Z,101290.34
2019-02-21T03:00:01.095Z,101289.23
2019-02-21T03:02:51.214Z,101286.02
2019-02-21T03:05:41.186Z,101296.51
2019-02-21T03:08:31.271Z,101297.64
2019-02-21T03:11:21.555Z,101302.98
2019-02-21T03:14:11.897Z,101287.92
2019-02-21T03:17:02.373Z,101307.87
2019-02-21T03:19:52.681Z,101309.32
2019-02-21T03:22:43.086Z,101311.35
2019-02-21T03:25:33.361Z,101311.44
2019-02-21T03:28:23.931Z,101311.12
2019-02-21T03:31:14.206Z,101311.91
2019-02-21T03:34:04.236Z,101321.41
2019-02-21T03:36:55.480Z,101321.26
2019-02-21T03:39:45.797Z,101326.13
2019-02-21T03:42:36.030Z,101322.05
2019-02-21T03:45:26.259Z,101324.47
2019-02-21T03:48:20.730Z,101323.75
2019-02-21T03:51:12.500Z,101328.34
2019-02-21T03:54:02.492Z,101328.25
2019-02-21T03:56:52.741Z,101330.61
2019-02-21T03:59:43.112Z,101333.44
2019-02-21T04:02:33.327Z,101330.68
2019-02-21T04:05:23.901Z,101332.97
2019-02-21T04:08:14.360Z,101334.77
2019-02-21T04:11:04.730Z,101331.16
2019-02-21T04:13:54.901Z,101334.59
2019-02-21T04:16:44.886Z,101336.09
2019-02-21T04:19:36.090Z,101332.35
2019-02-21T04:22:26.382Z,101337.52
2019-02-21T04:25:16.695Z,101342.23
2019-02-21T04:28:06.990Z,101345.89
2019-02-21T04:30:59.526Z,101349.36
2019-02-21T04:33:49.588Z,101351.07
2019-02-21T04:36:39.949Z,101353.52
2019-02-21T04:39:30.230Z,101358.30
2019-02-21T04:42:20.600Z,101357.43
2019-02-21T04:45:10.902Z,101366.92
2019-02-21T04:48:01.175Z,101371.39
2019-02-21T04:50:54.274Z,101364.09
2019-02-21T04:53:42.907Z,101359.77
2019-02-21T04:56:33.275Z,101375.22
2019-02-21T04:59:23.376Z,101374.92
2019-02-21T05:02:13.700Z,101371.39
2019-02-21T05:05:03.984Z,101373.05
2019-02-21T05:07:54.521Z,101374.21
2019-02-21T05:10:44.932Z,101380.33
2019-02-21T05:13:35.258Z,101384.41
2019-02-21T05:16:25.179Z,101387.34
2019-02-21T05:19:15.471Z,101386.39
2019-02-21T05:22:05.772Z,101385.77
2019-02-21T05:24:55.901Z,101389.47
2019-02-21T05:27:53.668Z,101397.91
2019-02-21T05:30:43.699Z,101402.24
2019-02-21T05:33:45.422Z,101409.97
2019-02-21T05:36:44.527Z,101415.66
2019-02-21T05:39:46.748Z,101416.95
2019-02-21T05:42:59.511Z,101422.97
2019-02-21T05:46:06.910Z,101426.36
2019-02-21T05:49:21.381Z,101431.95
2019-02-21T05:52:33.639Z,101438.13
2019-02-21T05:55:29.161Z,101442.80
2019-02-21T05:58:28.533Z,101454.72
2019-02-21T06:01:40.747Z,101449.59
2019-02-21T06:04:44.564Z,101450.11
2019-02-21T06:07:43.174Z,101455.52
2019-02-21T06:10:40.779Z,101458.09
2019-02-21T06:13:44.711Z,101461.82
2019-02-21T06:16:44.497Z,101464.31
2019-02-21T06:19:58.932Z,101469.13
2019-02-21T06:23:10.797Z,101476.75
2019-02-21T06:26:26.339Z,101476.05
2019-02-21T06:29:22.609Z,101472.21
2019-02-21T06:32:15.044Z,101484.44
2019-02-21T06:35:05.809Z,101483.75
2019-02-21T06:37:56.094Z,101488.23
2019-02-21T06:40:47.084Z,101491.02
2019-02-21T06:43:38.608Z,101499.17
2019-02-21T06:46:28.918Z,101501.95
2019-02-21T06:49:19.274Z,101508.75
2019-02-21T06:52:09.322Z,101504.95
2019-02-21T06:55:02.076Z,101508.36
2019-02-21T06:57:51.218Z,101511.56
2019-02-21T07:00:41.787Z,101504.95
2019-02-21T07:03:32.204Z,101515.77
2019-02-21T07:06:31.611Z,101510.34
2019-02-21T07:09:15.209Z,101508.07
2019-02-21T07:12:05.505Z,101506.65
2019-02-21T07:14:55.716Z,101508.63
2019-02-21T07:17:49.302Z,101505.20
2019-02-21T07:20:39.732Z,101504.00
2019-02-21T07:23:40.606Z,101505.15
2019-02-21T07:26:21.818Z,101509.98
2019-02-21T07:29:12.702Z,101501.95
2019-02-21T07:32:02.772Z,101505.31
2019-02-21T07:34:53.707Z,101509.98
2019-02-21T07:37:44.338Z,101513.88
2019-02-21T07:40:35.712Z,101512.02
2019-02-21T07:43:25.911Z,101512.28
2019-02-21T07:46:16.204Z,101516.39
2019-02-21T07:49:06.572Z,101513.88
2019-02-21T07:51:57.104Z,101517.73
2019-02-21T07:54:49.455Z,101509.73
2019-02-21T07:57:39.707Z,101518.95
2019-02-21T08:00:29.741Z,101516.86
2019-02-21T08:03:29.949Z,101519.51
2019-02-21T08:06:12.222Z,101520.56
2019-02-21T08:09:02.550Z,101526.08
2019-02-21T08:11:56.753Z,101532.86
2019-02-21T08:14:46.847Z,101533.84
2019-02-21T08:17:37.052Z,101526.53
2019-02-21T08:20:34.073Z,101540.55
2019-02-21T08:23:20.049Z,101539.19
2019-02-21T08:26:11.251Z,101532.64
2019-02-21T08:29:01.906Z,101534.42
2019-02-21T08:31:52.765Z,101539.70
2019-02-21T08:34:48.265Z,101537.50
2019-02-21T08:37:39.477Z,101530.80
2019-02-21T08:40:30.384Z,101533.60
2019-02-21T08:43:21.350Z,101536.84
2019-02-21T08:46:12.017Z,101533.69
2019-02-21T08:49:02.689Z,101531.92
2019-02-21T08:51:55.008Z,101526.97
2019-02-21T08:54:45.058Z,101532.73
2019-02-21T08:57:35.430Z,101538.47
2019-02-21T09:00:26.127Z,101543.58
2019-02-21T09:03:18.085Z,101549.41
2019-02-21T09:06:08.662Z,101544.97
2019-02-21T09:08:58.882Z,101545.59
2019-02-21T09:11:49.246Z,101545.70
2019-02-21T09:14:40.193Z,101555.70
2019-02-21T09:17:32.186Z,101547.49
2019-02-21T09:20:22.312Z,101555.51
2019-02-21T09:23:12.500Z,101557.67
2019-02-21T09:26:02.772Z,101552.35
2019-02-21T09:28:53.079Z,101547.21
2019-02-21T09:31:43.344Z,101555.94
2019-02-21T09:34:34.319Z,101545.80
2019-02-21T09:37:24.595Z,101552.67
2019-02-21T09:40:17.143Z,101557.96
2019-02-21T09:43:07.661Z,101549.23
2019-02-21T09:45:58.004Z,101549.43
2019-02-21T09:48:48.323Z,101550.98
2019-02-21T09:51:38.567Z,101550.00
2019-02-21T09:54:28.756Z,101542.66
2019-02-21T09:57:19.160Z,101535.34
2019-02-21T10:00:15.248Z,101535.34
2019-02-21T10:03:05.824Z,101526.88
2019-02-21T10:05:56.146Z,101526.88
2019-02-21T10:08:46.624Z,101531.61
2019-02-21T10:11:39.230Z,101529.31
2019-02-21T10:14:29.633Z,101525.66
2019-02-21T10:17:19.666Z,101522.73
2019-02-21T10:20:12.112Z,101523.95
2019-02-21T10:23:03.207Z,101515.76
2019-02-21T10:25:53.718Z,101510.94
2019-02-21T10:28:45.194Z,101506.64
2019-02-21T10:31:35.578Z,101505.28
2019-02-21T10:34:25.920Z,101500.88
2019-02-21T10:37:16.101Z,101502.99
2019-02-21T10:40:07.200Z,101506.06
2019-02-21T10:42:57.484Z,101499.56
2019-02-21T10:45:48.327Z,101496.20
2019-02-21T10:48:38.822Z,101494.37
2019-02-21T10:51:29.095Z,101484.58
2019-02-21T10:54:19.414Z,101488.13
2019-02-21T10:57:09.357Z,101481.72
2019-02-21T10:59:59.632Z,101482.13
2019-02-21T11:02:53.836Z,101479.28
2019-02-21T11:05:45.659Z,101476.46
2019-02-21T11:08:35.982Z,101466.52
2019-02-21T11:11:27.258Z,101470.78
2019-02-21T11:14:17.725Z,101467.20
2019-02-21T11:17:08.079Z,101473.55
2019-02-21T11:19:58.435Z,101466.48
2019-02-21T11:22:48.771Z,101463.72
2019-02-21T11:25:38.708Z,101467.91
2019-02-21T11:28:29.182Z,101461.81
2019-02-21T11:31:19.263Z,101463.67
2019-02-21T11:34:09.407Z,101444.49
2019-02-21T11:36:59.839Z,101459.44
2019-02-21T11:39:50.429Z,101457.89
2019-02-21T11:42:40.856Z,101454.09
2019-02-21T11:45:31.349Z,101447.48
2019-02-21T11:48:21.599Z,101451.64
2019-02-21T11:51:12.169Z,101460.19
2019-02-21T11:54:02.402Z,101457.50
2019-02-21T11:56:52.702Z,101453.25
2019-02-21T11:59:42.861Z,101464.02
2019-02-21T12:02:38.772Z,101452.96
2019-02-21T12:05:31.517Z,101451.91
2019-02-21T12:08:16.778Z,101444.35
2019-02-21T12:11:06.989Z,101450.55
2019-02-21T12:13:57.675Z,101445.81
2019-02-21T12:16:48.048Z,101449.52
2019-02-21T12:19:38.645Z,101448.62
2019-02-21T12:22:28.842Z,101447.91
2019-02-21T12:25:19.254Z,101449.33
2019-02-21T12:28:09.282Z,101446.63
2019-02-21T12:30:59.734Z,101435.78
2019-02-21T12:33:49.948Z,101435.48
2019-02-21T12:36:39.975Z,101432.02
2019-02-21T12:39:30.259Z,101433.17
2019-02-21T12:42:20.318Z,101425.55
2019-02-21T12:45:12.803Z,101430.45
2019-02-21T12:48:03.267Z,101422.28
2019-02-21T12:50:53.708Z,101420.50
2019-02-21T12:53:43.894Z,101417.33
2019-02-21T12:56:34.161Z,101422.09
2019-02-21T12:59:25.526Z,101415.36
2019-02-21T13:02:15.835Z,101426.09
2019-02-21T13:05:06.355Z,101416.58
2019-02-21T13:07:57.445Z,101415.48
2019-02-21T13:10:47.775Z,101415.69
2019-02-21T13:13:38.059Z,101409.56
2019-02-21T13:16:28.248Z,101412.31
2019-02-21T13:19:18.395Z,101394.25
2019-02-21T13:22:11.611Z,101402.20
2019-02-21T13:25:01.643Z,101404.98
2019-02-21T13:27:54.900Z,101404.89
2019-02-21T13:30:45.180Z,101406.05
2019-02-21T13:33:35.897Z,101406.05
2019-02-21T13:36:26.505Z,101399.09
2019-02-21T13:39:16.689Z,101392.84
2019-02-21T13:42:06.910Z,101393.11
2019-02-21T13:45:00.002Z,101395.36
2019-02-21T13:47:50.026Z,101401.09
2019-02-21T13:50:40.448Z,101399.48
2019-02-21T13:53:30.780Z,101395.20
2019-02-21T13:56:21.254Z,101400.31
2019-02-21T13:59:11.496Z,101394.30
2019-02-21T14:02:01.883Z,101393.52
2019-02-21T14:04:52.313Z,101394.19
2019-02-21T14:07:43.010Z,101397.62
2019-02-21T14:10:33.522Z,101397.43
2019-02-21T14:13:23.877Z,101394.50
2019-02-21T14:16:14.240Z,101394.62
2019-02-21T14:19:04.297Z,101392.13
2019-02-21T14:21:54.701Z,101392.95
2019-02-21T14:24:44.752Z,101395.09
2019-02-21T14:27:35.058Z,101394.69
2019-02-21T14:30:25.536Z,101391.64
2019-02-21T14:33:17.449Z,101398.67
2019-02-21T14:36:15.104Z,101402.99
2019-02-21T14:39:00.085Z,101390.78
2019-02-21T14:41:50.300Z,101390.67
2019-02-21T14:44:40.839Z,101386.47
2019-02-21T14:47:35.161Z,101390.42
2019-02-21T14:50:25.307Z,101385.47
2019-02-21T14:53:18.573Z,101396.07
2019-02-21T14:56:09.027Z,101387.67
2019-02-21T14:58:59.932Z,101386.37
2019-02-21T15:01:50.336Z,101384.36
2019-02-21T15:04:40.705Z,101389.73
2019-02-21T15:07:30.805Z,101388.80
2019-02-21T15:10:21.268Z,101385.80
2019-02-21T15:13:12.460Z,101388.41
2019-02-21T15:16:02.527Z,101388.63
2019-02-21T15:18:55.185Z,101381.34
2019-02-21T15:21:45.204Z,101380.51
2019-02-21T15:24:35.612Z,101381.16
2019-02-21T15:27:26.058Z,101380.25
2019-02-21T15:30:18.112Z,101383.17
2019-02-21T15:33:08.247Z,101384.54
2019-02-21T15:35:58.734Z,101376.26
2019-02-21T15:38:49.266Z,101380.67
2019-02-21T15:41:40.865Z,101378.49
2019-02-21T15:44:32.115Z,101374.41
2019-02-21T15:47:22.523Z,101373.84
2019-02-21T15:50:13.208Z,101377.78
2019-02-21T15:53:03.293Z,101386.61
2019-02-21T15:55:53.791Z,101383.94
2019-02-21T15:58:43.813Z,101383.56
2019-02-21T16:01:34.232Z,101385.28
2019-02-21T16:04:24.624Z,101395.74
2019-02-21T16:07:14.967Z,101395.24
2019-02-21T16:10:08.027Z,101399.63
2019-02-21T16:12:58.862Z,101397.72
2019-02-21T16:15:49.671Z,101399.16
2019-02-21T16:18:40.207Z,101398.69
2019-02-21T16:21:30.516Z,101407.50
2019-02-21T16:24:20.625Z,101405.75
2019-02-21T16:27:10.893Z,101400.30
2019-02-21T16:30:00.965Z,101409.67
2019-02-21T16:32:51.285Z,101405.95
2019-02-21T16:35:41.537Z,101421.17
2019-02-21T16:38:31.709Z,101417.73
2019-02-21T16:41:22.117Z,101413.59
2019-02-21T16:44:12.595Z,101418.57
2019-02-21T16:47:05.751Z,101417.03
2019-02-21T16:49:58.365Z,101416.05
2019-02-21T16:52:48.815Z,101423.81
2019-02-21T16:55:39.313Z,101424.48
2019-02-21T16:58:29.776Z,101432.70
2019-02-21T17:01:20.133Z,101427.34
2019-02-21T17:04:10.487Z,101431.07
2019-02-21T17:07:00.926Z,101436.53
2019-02-21T17:09:51.333Z,101429.38
2019-02-21T17:12:41.654Z,101437.86
2019-02-21T17:15:31.883Z,101434.39
2019-02-21T17:18:22.283Z,101437.47
2019-02-21T17:21:12.784Z,101439.38
2019-02-21T17:24:03.301Z,101439.63
2019-02-21T17:26:53.894Z,101441.44
2019-02-21T17:29:44.376Z,101436.65
2019-02-21T17:32:34.640Z,101442.97
2019-02-21T17:35:24.902Z,101441.03
2019-02-21T17:38:17.813Z,101443.22
2019-02-21T17:41:10.871Z,101436.16
2019-02-21T17:44:01.279Z,101437.78
2019-02-21T17:46:51.715Z,101436.53
2019-02-21T17:49:43.453Z,101439.20
2019-02-21T17:52:33.782Z,101442.53
2019-02-21T17:55:23.990Z,101435.84
2019-02-21T17:58:14.295Z,101433.17
2019-02-21T18:01:05.732Z,101432.80
2019-02-21T18:03:55.730Z,101432.61
2019-02-21T18:06:46.197Z,101433.48
2019-02-21T18:09:36.772Z,101431.84
2019-02-21T18:12:27.474Z,101433.01
2019-02-21T18:15:19.544Z,101430.81
2019-02-21T18:18:09.888Z,101431.27
2019-02-21T18:20:59.887Z,101434.14
2019-02-21T18:23:50.361Z,101439.17
2019-02-21T18:26:40.570Z,101435.76
2019-02-21T18:29:30.978Z,101435.17
2019-02-21T18:32:22.466Z,101434.77
2019-02-21T18:35:12.982Z,101444.41
2019-02-21T18:38:03.330Z,101439.18
2019-02-21T18:40:54.575Z,101440.02
2019-02-21T18:43:45.171Z,101443.75
2019-02-21T18:46:35.760Z,101447.27
2019-02-21T18:49:26.277Z,101446.89
2019-02-21T18:52:16.444Z,101452.89
2019-02-21T18:55:07.061Z,101451.55
2019-02-21T18:57:57.121Z,101453.14
2019-02-21T19:00:47.474Z,101450.37
2019-02-21T19:03:37.923Z,101454.51
2019-02-21T19:06:27.958Z,101455.06
2019-02-21T19:09:21.036Z,101455.84
2019-02-21T19:12:11.030Z,101450.69
2019-02-21T19:15:01.745Z,101444.41
2019-02-21T19:17:55.037Z,101454.70
2019-02-21T19:20:45.488Z,101456.69
2019-02-21T19:23:35.647Z,101460.45
2019-02-21T19:26:26.208Z,101456.00
2019-02-21T19:29:16.691Z,101456.00
2019-02-21T19:32:07.100Z,101452.19
2019-02-21T19:34:57.374Z,101451.92
2019-02-21T19:37:47.878Z,101455.79
2019-02-21T19:40:38.157Z,101454.23
2019-02-21T19:43:28.320Z,101453.13
2019-02-21T19:46:18.679Z,101456.34
2019-02-21T19:49:09.195Z,101445.88
2019-02-21T19:51:59.754Z,101447.59
2019-02-21T19:54:50.339Z,101447.41
2019-02-21T19:57:40.875Z,101453.07
2019-02-21T20:00:32.988Z,101452.09
2019-02-21T20:03:22.989Z,101445.43
2019-02-21T20:06:13.345Z,101449.00
2019-02-21T20:09:04.851Z,101446.77
2019-02-21T20:11:56.707Z,101446.94
2019-02-21T20:14:46.939Z,101443.88
2019-02-21T20:17:37.363Z,101446.00
2019-02-21T20:20:27.672Z,101442.18
2019-02-21T20:23:18.051Z,101440.25
2019-02-21T20:26:17.957Z,101445.50
2019-02-21T20:29:00.478Z,101430.89
2019-02-21T20:31:50.976Z,101435.77
2019-02-21T20:34:41.455Z,101427.84
2019-02-21T20:37:31.720Z,101430.89
2019-02-21T20:40:22.228Z,101425.08
2019-02-21T20:43:12.270Z,101426.10
2019-02-21T20:46:02.948Z,101426.20
2019-02-21T20:48:53.391Z,101426.81
2019-02-21T20:51:43.732Z,101429.80
2019-02-21T20:54:34.126Z,101423.81
2019-02-21T20:57:24.933Z,101426.66
2019-02-21T21:00:15.306Z,101421.92
2019-02-21T21:03:07.000Z,101424.55
2019-02-21T21:05:57.351Z,101421.73
2019-02-21T21:08:47.823Z,101411.56
2019-02-21T21:11:39.402Z,101412.34
2019-02-21T21:14:29.733Z,101418.42
2019-02-21T21:17:20.221Z,101414.97
2019-02-21T21:20:16.384Z,101417.17
2019-02-21T21:23:03.451Z,101415.42
2019-02-21T21:25:53.735Z,101412.98
2019-02-21T21:28:44.083Z,101414.13
2019-02-21T21:31:34.188Z,101406.62
2019-02-21T21:34:24.417Z,101412.49
2019-02-21T21:37:14.871Z,101402.73
2019-02-21T21:40:05.817Z,101409.78
2019-02-21T21:42:56.403Z,101405.30
2019-02-21T21:45:46.837Z,101408.84
2019-02-21T21:48:37.535Z,101411.97
2019-02-21T21:51:28.051Z,101408.84
2019-02-21T21:54:19.824Z,101405.84
2019-02-21T21:57:10.715Z,101401.95
2019-02-21T22:00:01.125Z,101411.45
2019-02-21T22:02:53.043Z,101408.92
2019-02-21T22:05:43.511Z,101410.58
2019-02-21T22:08:34.116Z,101407.64
2019-02-21T22:11:25.510Z,101409.09
2019-02-21T22:14:15.880Z,101402.48
2019-02-21T22:17:05.948Z,101407.03
2019-02-21T22:19:56.191Z,101406.89
2019-02-21T22:22:46.518Z,101412.14
2019-02-21T22:25:37.376Z,101409.94
2019-02-21T22:28:28.025Z,101411.65
2019-02-21T22:31:18.442Z,101416.48
2019-02-21T22:34:08.827Z,101409.87
2019-02-21T22:36:59.208Z,101410.58
2019-02-21T22:39:49.497Z,101410.28
2019-02-21T22:42:39.867Z,101420.88
2019-02-21T22:45:31.233Z,101425.95
2019-02-21T22:48:21.524Z,101420.63
2019-02-21T22:51:11.885Z,101415.83
2019-02-21T22:54:01.941Z,101420.80
2019-02-21T22:56:52.538Z,101420.44
2019-02-21T22:59:43.259Z,101427.20
2019-02-21T23:02:34.964Z,101429.18
2019-02-21T23:05:56.736Z,101421.00
2019-02-21T23:08:53.204Z,101418.27
2019-02-21T23:11:45.808Z,101421.58
2019-02-21T23:14:36.270Z,101413.34
2019-02-21T23:17:29.080Z,101412.23
2019-02-21T23:20:19.400Z,101412.61
2019-02-21T23:23:12.457Z,101411.42
2019-02-21T23:26:02.915Z,101408.78
2019-02-21T23:28:53.294Z,101408.05
2019-02-21T23:31:43.775Z,101404.22
2019-02-21T23:34:38.667Z,101403.61
2019-02-21T23:37:29.092Z,101402.28
2019-02-21T23:40:19.551Z,101407.27
2019-02-21T23:43:10.124Z,101401.30
2019-02-21T23:46:04.257Z,101405.03
2019-02-21T23:48:57.383Z,101398.36
2019-02-21T23:51:47.610Z,101396.47
2019-02-21T23:54:38.215Z,101387.77
2019-02-21T23:57:28.620Z,101392.93
